Time;durP1;ratioP1;P1;durP2;ratioP2;P2;SDS_P1;SDS_P2;PMS_P1;PMS_P2;Temp;Humidity;BMP_temperature;BMP_pressure;BME280_temperature;BME280_humidity;BME280_pressure;Samples;Min_cycle;Max_cycle;Signal;HPM_P1;HPM_P2
2022/11/24 00:01:32;;;;;;;3.17;2.00;;;;;;;15.23;51.86;95710.19;5022403;28;20229;-88
2022/11/24 00:04:00;;;;;;;2.43;2.23;;;;;;;20.37;52.12;96510.88;4995840;28;20226;-87
2022/11/24 00:06:28;;;;;;;2.30;2.10;;;;;;;11.77;51.85;95147.31;4979612;28;20206;-86
2022/11/24 00:09:03;;;;;;;2.20;2.00;;;;;;;14.36;52.21;95579.84;5036922;28;20229;-88
2022/11/24 00:11:31;;;;;;;2.50;2.30;;;;;;;13.12;52.02;95342.59;4994537;28;20265;-88
2022/11/24 00:13:58;;;;;;;2.23;1.83;;;;;;;13.31;51.96;95356.53;4988905;28;20605;-86
2022/11/24 00:16:32;;;;;;;2.53;2.10;;;;;;;14.86;51.92;95625.78;5000612;28;20759;-88
2022/11/24 00:18:59;;;;;;;3.53;2.07;;;;;;;16.82;52.27;95923.50;5015494;28;20251;-88
2022/11/24 00:21:30;;;;;;;2.13;2.00;;;;;;;15.43;52.00;95724.22;5015283;28;20229;-87
2022/11/24 00:23:57;;;;;;;3.90;2.10;;;;;;;15.15;51.27;95725.97;5025390;28;20234;-88
2022/11/24 00:26:27;;;;;;;2.23;2.00;;;;;;;15.55;52.86;95810.59;4990525;28;20233;-87
2022/11/24 00:28:56;;;;;;;2.07;1.80;;;;;;;19.96;52.35;96492.25;4980090;28;20199;-88
2022/11/24 00:31:24;;;;;;;2.33;1.83;;;;;;;16.08;52.38;95815.25;5032006;28;20206;-88
2022/11/24 00:33:53;;;;;;;5.33;2.17;;;;;;;9.38;51.82;94768.34;5011948;28;20226;-86
2022/11/24 00:36:20;;;;;;;4.03;2.27;;;;;;;15.20;52.80;95668.78;5035280;28;20237;-87
2022/11/24 00:38:54;;;;;;;4.27;2.67;;;;;;;15.02;51.97;95734.94;5021612;28;20721;-90
2022/11/24 00:41:21;;;;;;;2.43;2.13;;;;;;;13.04;52.03;95350.75;5015684;28;20218;-87
2022/11/24 00:43:54;;;;;;;5.77;2.57;;;;;;;14.89;52.37;95659.56;4983124;28;20633;-87
2022/11/24 00:46:21;;;;;;;3.93;2.70;;;;;;;18.60;52.52;96402.69;4990916;28;20230;-89
2022/11/24 00:48:49;;;;;;;3.23;2.20;;;;;;;18.55;52.90;96382.22;5003813;28;20233;-89
2022/11/24 00:51:17;;;;;;;5.50;2.40;;;;;;;18.77;52.54;96302.97;4983018;28;20179;-88
2022/11/24 00:53:54;;;;;;;3.17;2.37;;;;;;;10.03;52.24;94869.00;4979975;28;20236;-88
2022/11/24 00:56:21;;;;;;;5.83;2.27;;;;;;;16.78;52.75;96066.28;5026423;28;20209;-86
2022/11/24 00:58:48;;;;;;;3.57;2.50;;;;;;;14.90;52.38;95805.44;5012383;28;20226;-89
2022/11/24 01:01:19;;;;;;;4.70;2.40;;;;;;;11.70;52.37;95234.34;4999312;28;20273;-87
2022/11/24 01:03:49;;;;;;;4.33;2.30;;;;;;;20.53;52.85;96683.91;4999993;28;20218;-88
2022/11/24 01:06:25;;;;;;;3.50;2.47;;;;;;;18.33;52.85;96252.84;5000719;28;20209;-87
2022/11/24 01:08:58;;;;;;;2.63;2.20;;;;;;;16.38;52.82;95970.56;5024833;28;20497;-87
2022/11/24 01:11:26;;;;;;;3.20;2.70;;;;;;;18.68;53.02;96363.03;5033660;28;20228;-89
2022/11/24 01:13:59;;;;;;;4.07;2.37;;;;;;;15.15;52.81;95733.56;5013934;28;20795;-87
2022/11/24 01:16:31;;;;;;;3.60;2.30;;;;;;;10.27;52.70;94890.69;4985944;28;20513;-87
2022/11/24 01:18:59;;;;;;;5.40;2.40;;;;;;;18.61;53.23;96312.81;5017131;28;20206;-88
2022/11/24 01:21:26;;;;;;;4.13;2.10;;;;;;;12.16;52.98;95262.56;4991614;28;20242;-86
2022/11/24 01:23:53;;;;;;;5.57;2.33;;;;;;;16.82;53.25;96062.16;4978481;28;20236;-88
2022/11/24 01:26:22;;;;;;;6.90;2.37;;;;;;;20.86;53.19;96714.31;5015842;23;20215;-94
2022/11/24 01:28:55;;;;;;;7.57;2.63;;;;;;;20.45;53.04;96661.59;4977338;28;20204;-95
2022/11/24 01:31:22;;;;;;;7.73;2.47;;;;;;;19.56;53.18;96504.16;4964957;28;20197;-95
2022/11/24 01:33:49;;;;;;;7.03;2.77;;;;;;;20.01;53.01;96589.22;5000822;28;20195;-95
2022/11/24 01:36:16;;;;;;;4.80;2.60;;;;;;;20.09;53.06;96602.13;4971888;28;20282;-96
2022/11/24 01:38:42;;;;;;;5.27;2.50;;;;;;;20.26;53.21;96624.66;4954753;28;20790;-96
2022/11/24 01:41:14;;;;;;;6.20;2.83;;;;;;;20.04;53.21;96586.75;4977407;28;20187;-95
2022/11/24 01:43:41;;;;;;;6.77;2.80;;;;;;;20.33;53.41;96664.75;4980198;28;20195;-95
2022/11/24 01:46:25;;;;;;;3.83;2.50;;;;;;;20.78;53.30;96723.56;4966877;28;20218;-95
2022/11/24 01:49:01;;;;;;;5.03;2.60;;;;;;;21.12;53.22;96782.13;4988267;28;20184;-95
2022/11/24 01:51:29;;;;;;;4.17;2.50;;;;;;;20.39;53.17;96664.03;4982029;28;20250;-94
2022/11/24 01:54:12;;;;;;;5.23;2.47;;;;;;;20.62;53.41;96714.72;4971390;28;20191;-95
2022/11/24 01:56:39;;;;;;;3.93;2.27;;;;;;;19.74;53.22;96579.34;4980505;28;20221;-96
2022/11/24 01:59:06;;;;;;;2.80;2.27;;;;;;;20.20;53.40;96638.97;4988318;28;20211;-95
2022/11/24 02:01:33;;;;;;;5.77;2.40;;;;;;;20.27;53.38;96658.66;4978058;28;20227;-94
2022/11/24 02:04:00;;;;;;;5.43;2.93;;;;;;;19.83;53.47;96602.47;4980640;28;20240;-96
2022/11/24 02:06:28;;;;;;;4.80;2.90;;;;;;;20.29;53.65;96663.00;4969830;28;20224;-96
2022/11/24 02:09:12;;;;;;;6.47;2.67;;;;;;;20.68;53.90;96736.94;4965335;28;20191;-95
2022/11/24 02:11:39;;;;;;;7.67;3.07;;;;;;;19.93;53.63;96603.53;4983381;28;20191;-95
2022/11/24 02:14:08;;;;;;;5.80;3.00;;;;;;;20.70;53.86;96742.94;4984394;28;20209;-95
2022/11/24 02:16:35;;;;;;;4.30;2.53;;;;;;;19.84;53.90;96593.97;4981430;28;20204;-95
2022/11/24 02:19:17;;;;;;;5.37;2.73;;;;;;;20.18;53.64;96666.13;4951801;28;20218;-95
2022/11/24 02:21:43;;;;;;;5.30;2.70;;;;;;;20.02;53.47;96626.69;4981803;28;20239;-94
2022/11/24 02:24:29;;;;;;;4.70;2.53;;;;;;;20.25;53.63;96690.97;4978407;28;20475;-95
2022/11/24 02:26:55;;;;;;;6.03;2.47;;;;;;;20.25;53.80;96681.59;4974571;28;20358;-95
2022/11/24 02:29:22;;;;;;;4.73;2.67;;;;;;;21.11;53.76;96840.03;4963481;28;20192;-95
2022/11/24 02:31:51;;;;;;;7.97;2.43;;;;;;;20.72;53.57;96760.00;4971856;28;20184;-95
2022/11/24 02:34:17;;;;;;;5.47;2.50;;;;;;;19.98;53.91;96641.03;4971251;28;20180;-95
2022/11/24 02:36:44;;;;;;;4.37;2.60;;;;;;;20.87;53.69;96796.06;4995881;28;20196;-96
2022/11/24 02:39:14;;;;;;;7.37;2.90;;;;;;;19.98;53.96;96647.81;4990345;28;20183;-95
2022/11/24 02:41:41;;;;;;;5.70;2.83;;;;;;;20.56;54.20;96737.56;4971315;28;20211;-95
2022/11/24 02:44:08;;;;;;;6.10;2.40;;;;;;;19.89;53.49;96625.56;4971317;28;20199;-96
2022/11/24 02:46:34;;;;;;;6.40;2.40;;;;;;;20.42;53.70;96722.78;4975985;28;20283;-94
2022/11/24 02:49:01;;;;;;;8.17;2.73;;;;;;;20.66;53.76;96753.94;4982247;28;20194;-96
2022/11/24 02:51:28;;;;;;;7.10;2.97;;;;;;;20.67;53.82;96761.63;4995814;28;20255;-95
2022/11/24 02:53:55;;;;;;;6.03;2.53;;;;;;;20.04;53.87;96663.25;4963086;28;20184;-95
2022/11/24 02:56:22;;;;;;;4.37;2.80;;;;;;;20.38;54.12;96737.19;4996008;28;20227;-95
2022/11/24 02:58:48;;;;;;;6.37;2.80;;;;;;;20.70;53.94;96773.59;4994985;28;20247;-96
2022/11/24 03:01:15;;;;;;;7.00;2.47;;;;;;;20.48;53.75;96754.41;4979220;28;20251;-96
2022/11/24 03:03:41;;;;;;;3.17;2.20;;;;;;;19.93;53.60;96641.78;4971219;28;20194;-95
2022/11/24 03:06:08;;;;;;;5.13;2.20;;;;;;;21.08;53.63;96850.19;4994234;28;20230;-96
2022/11/24 03:08:34;;;;;;;8.30;2.50;;;;;;;19.80;53.83;96624.47;4979189;28;20187;-95
2022/11/24 03:11:01;;;;;;;5.20;2.40;;;;;;;20.75;53.84;96800.09;4980622;28;20183;-96
2022/11/24 03:13:28;;;;;;;4.50;2.30;;;;;;;21.13;53.73;96858.81;4955319;28;20251;-96
2022/11/24 03:15:54;;;;;;;3.77;2.43;;;;;;;20.07;53.92;96695.63;4963040;28;20207;-95
2022/11/24 03:18:21;;;;;;;4.17;2.30;;;;;;;20.68;53.39;96806.75;4969863;28;20188;-95
2022/11/24 03:20:48;;;;;;;6.67;2.97;;;;;;;20.38;54.24;96769.47;4980219;28;20203;-95
2022/11/24 03:23:15;;;;;;;4.47;2.50;;;;;;;19.96;53.94;96688.59;4966401;28;20212;-95
2022/11/24 03:25:41;;;;;;;4.07;2.30;;;;;;;20.05;53.73;96697.28;4978669;28;20279;-95
2022/11/24 03:28:08;;;;;;;3.40;2.00;;;;;;;20.05;54.12;96725.34;4998391;28;20214;-95
2022/11/24 03:30:34;;;;;;;5.17;2.17;;;;;;;20.03;53.89;96687.03;4978298;28;20192;-95
2022/11/24 03:33:03;;;;;;;3.90;2.23;;;;;;;20.05;53.63;96708.34;4974421;28;20208;-96
2022/11/24 03:35:30;;;;;;;4.00;2.40;;;;;;;19.21;53.92;96572.16;4969055;28;20203;-96
2022/11/24 03:37:57;;;;;;;4.30;2.40;;;;;;;20.55;53.71;96803.91;4999161;28;20210;-95
2022/11/24 03:40:26;;;;;;;5.57;2.23;;;;;;;20.25;54.06;96760.69;4978747;28;20188;-94
2022/11/24 03:42:52;;;;;;;7.20;2.67;;;;;;;20.26;54.18;96772.63;4994410;28;20272;-95
2022/11/24 03:45:19;;;;;;;3.83;2.37;;;;;;;20.42;54.13;96795.09;4975506;28;20319;-95
2022/11/24 03:48:06;;;;;;;3.83;2.37;;;;;;;19.53;54.44;96634.94;4965299;28;20215;-94
2022/11/24 03:50:33;;;;;;;2.77;1.90;;;;;;;19.71;53.93;96665.06;4969927;28;20223;-95
2022/11/24 03:52:59;;;;;;;4.17;2.00;;;;;;;19.37;54.67;96622.69;4994403;28;20196;-95
2022/11/24 03:55:26;;;;;;;3.20;2.17;;;;;;;20.16;53.80;96737.53;4995092;28;20211;-95
2022/11/24 03:57:53;;;;;;;3.03;2.10;;;;;;;20.31;54.20;96762.53;4980965;28;20191;-96
2022/11/24 04:00:19;;;;;;;4.50;2.40;;;;;;;20.36;53.88;96800.06;4962331;28;20188;-95
2022/11/24 04:02:47;;;;;;;3.60;2.20;;;;;;;20.49;53.95;96811.44;4982093;28;20240;-95
2022/11/24 04:05:13;;;;;;;2.87;2.17;;;;;;;20.62;54.23;96826.16;4997876;28;20215;-95
2022/11/24 04:07:40;;;;;;;2.57;1.90;;;;;;;20.43;54.26;96799.38;4998522;28;20191;-95
2022/11/24 04:10:07;;;;;;;3.87;2.20;;;;;;;20.16;54.14;96763.03;4955931;28;20187;-95
2022/11/24 04:12:43;;;;;;;3.60;2.20;;;;;;;19.88;53.78;96709.66;4966515;28;20223;-96
2022/11/24 04:15:10;;;;;;;3.53;2.20;;;;;;;20.24;54.14;96765.75;4987440;28;20247;-95
2022/11/24 04:17:37;;;;;;;3.63;2.30;;;;;;;20.90;54.13;96879.59;4969052;28;21168;-95
2022/11/24 04:20:04;;;;;;;3.87;2.40;;;;;;;20.67;54.13;96840.78;4964441;28;20222;-95
2022/11/24 04:22:30;;;;;;;4.03;2.17;;;;;;;20.26;54.12;96777.75;4989775;28;20208;-96
2022/11/24 04:24:57;;;;;;;5.00;2.20;;;;;;;20.70;53.95;96857.84;4992417;28;20188;-96
2022/11/24 04:27:24;;;;;;;2.43;2.03;;;;;;;20.10;53.61;96732.25;4967557;28;20210;-96
2022/11/24 04:29:50;;;;;;;3.37;2.00;;;;;;;20.42;54.15;96819.75;5005971;28;20190;-95
2022/11/24 04:32:17;;;;;;;2.50;2.10;;;;;;;20.30;54.35;96778.66;4978159;28;20199;-96
2022/11/24 04:34:43;;;;;;;3.00;2.07;;;;;;;20.20;54.26;96769.06;4979269;28;20252;-95
2022/11/24 04:37:10;;;;;;;2.77;1.90;;;;;;;19.84;54.23;96708.72;4982068;28;20464;-95
2022/11/24 04:39:37;;;;;;;2.40;2.07;;;;;;;20.30;54.29;96784.63;4981345;28;20184;-96
2022/11/24 04:42:03;;;;;;;4.23;1.90;;;;;;;21.12;54.01;96926.09;4982865;28;20206;-96
2022/11/24 04:44:30;;;;;;;2.63;2.00;;;;;;;19.89;54.58;96708.81;4998453;28;20259;-96
2022/11/24 04:46:56;;;;;;;2.50;1.93;;;;;;;20.53;54.04;96821.72;4982324;28;20261;-95
2022/11/24 04:49:23;;;;;;;3.17;2.03;;;;;;;19.56;54.34;96664.72;5000984;28;20191;-95
2022/11/24 04:51:49;;;;;;;3.57;2.43;;;;;;;20.68;54.60;96860.38;4979731;28;20187;-95
2022/11/24 04:54:16;;;;;;;3.50;2.17;;;;;;;20.05;54.28;96758.50;4981135;28;20202;-95
2022/11/24 04:56:43;;;;;;;2.63;1.97;;;;;;;20.08;54.13;96764.53;4982823;28;20271;-95
2022/11/24 04:59:13;;;;;;;3.00;1.93;;;;;;;20.74;54.17;96888.59;5007891;28;20302;-95
2022/11/24 05:01:44;;;;;;;3.03;1.70;;;;;;;21.11;54.25;96957.56;4981677;28;20303;-95
2022/11/24 05:04:12;;;;;;;3.53;2.23;;;;;;;20.57;54.15;96886.50;4966937;28;20217;-95
2022/11/24 05:06:39;;;;;;;2.83;2.10;;;;;;;20.49;54.20;96850.56;4966040;28;20239;-96
2022/11/24 05:09:06;;;;;;;3.07;1.93;;;;;;;20.26;54.25;96815.13;4982159;28;20208;-96
2022/11/24 05:11:32;;;;;;;2.37;2.00;;;;;;;19.84;54.18;96761.41;4981805;28;20222;-96
2022/11/24 05:13:59;;;;;;;2.50;1.97;;;;;;;20.55;54.53;96862.63;4972892;28;20264;-96
2022/11/24 05:16:26;;;;;;;3.20;2.00;;;;;;;20.41;54.38;96871.63;4953564;28;20214;-95
2022/11/24 05:18:52;;;;;;;2.27;2.00;;;;;;;20.67;53.88;96896.94;4948523;28;20251;-95
2022/11/24 05:21:19;;;;;;;2.53;1.90;;;;;;;19.47;53.90;96698.50;4998091;28;20183;-95
2022/11/24 05:23:45;;;;;;;2.33;1.87;;;;;;;20.56;53.92;96906.03;4991939;28;20235;-96
2022/11/24 05:26:12;;;;;;;3.67;2.10;;;;;;;20.44;54.27;96877.69;4977275;28;20376;-96
2022/11/24 05:28:39;;;;;;;2.13;1.60;;;;;;;20.70;54.49;96927.66;4965470;28;20223;-96
2022/11/24 05:31:05;;;;;;;2.33;1.90;;;;;;;21.10;54.73;96990.75;4958342;28;20184;-96
2022/11/24 05:33:32;;;;;;;3.30;2.10;;;;;;;20.70;54.07;96926.78;4999924;28;20198;-96
2022/11/24 05:36:00;;;;;;;3.63;1.80;;;;;;;20.25;54.25;96865.28;4992831;28;20234;-95
2022/11/24 05:38:26;;;;;;;2.67;2.00;;;;;;;20.70;54.14;96930.22;4962822;28;20184;-94
2022/11/24 05:40:53;;;;;;;2.87;1.90;;;;;;;19.90;53.90;96803.19;4995263;28;20219;-95
2022/11/24 05:43:20;;;;;;;6.03;1.97;;;;;;;20.10;54.37;96833.44;4996637;28;20234;-96
2022/11/24 05:48:36;;;;;;;2.57;1.90;;;;;;;20.81;53.95;96958.53;5036394;28;20265;-94
2022/11/24 05:51:03;;;;;;;2.50;1.97;;;;;;;21.14;54.33;97013.00;5000275;28;20226;-93
2022/11/24 05:53:34;;;;;;;3.63;1.87;;;;;;;19.42;54.20;96727.25;5036656;28;20189;-94
2022/11/24 05:56:02;;;;;;;2.43;1.83;;;;;;;21.14;54.29;97043.66;4995562;28;20229;-93
2022/11/24 05:58:29;;;;;;;2.73;2.00;;;;;;;20.80;54.28;96967.00;5011094;28;20216;-92
2022/11/24 06:00:55;;;;;;;1.77;1.60;;;;;;;20.34;54.17;96898.69;5018681;28;20249;-92
2022/11/24 06:03:22;;;;;;;4.50;1.60;;;;;;;20.72;54.44;96955.78;5027298;28;20213;-94
2022/11/24 06:05:49;;;;;;;2.40;1.80;;;;;;;20.85;54.25;96984.19;5024524;28;20214;-92
2022/11/24 06:08:15;;;;;;;3.40;1.80;;;;;;;20.13;54.24;96856.50;5015201;28;20289;-94
2022/11/24 06:10:42;;;;;;;2.83;1.90;;;;;;;20.79;53.95;96976.38;5024783;28;20421;-93
2022/11/24 06:13:08;;;;;;;4.90;2.20;;;;;;;20.09;54.49;96858.06;5010856;28;20198;-93
2022/11/24 06:15:36;;;;;;;2.47;1.80;;;;;;;20.72;54.31;96966.00;5024284;28;20485;-93
2022/11/24 06:18:03;;;;;;;3.30;1.70;;;;;;;21.00;54.03;97033.13;5008283;28;20178;-93
2022/11/24 06:20:30;;;;;;;2.70;1.70;;;;;;;20.97;54.30;97024.50;5032738;28;20182;-93
2022/11/24 06:22:59;;;;;;;3.73;2.00;;;;;;;20.56;54.03;96956.22;5024709;28;20210;-91
2022/11/24 06:25:26;;;;;;;3.97;1.73;;;;;;;20.39;54.19;96926.88;5010027;28;20253;-93
2022/11/24 06:27:52;;;;;;;3.67;1.90;;;;;;;20.73;53.84;96976.25;4991160;28;20206;-94
2022/11/24 06:30:19;;;;;;;4.47;1.90;;;;;;;20.99;53.91;97027.97;5005348;28;20212;-94
2022/11/24 06:32:46;;;;;;;4.20;2.07;;;;;;;20.02;53.47;96866.41;5015098;28;20182;-95
2022/11/24 06:35:15;;;;;;;6.10;2.20;;;;;;;19.92;53.47;96851.69;5032382;28;20524;-94
2022/11/24 06:37:42;;;;;;;4.93;2.10;;;;;;;20.73;52.74;96995.78;5029846;28;20178;-94
2022/11/24 06:40:09;;;;;;;4.53;2.10;;;;;;;20.05;51.98;96874.16;5012602;28;20201;-95
2022/11/24 06:42:36;;;;;;;4.23;2.47;;;;;;;19.98;51.40;96856.94;5015178;28;20335;-96
2022/11/24 06:45:03;;;;;;;5.00;2.57;;;;;;;19.83;50.58;96841.25;5014520;28;20201;-94
2022/11/24 06:47:34;;;;;;;5.30;2.43;;;;;;;20.30;50.59;96924.97;5024818;28;20196;-93
2022/11/24 06:50:01;;;;;;;9.90;2.57;;;;;;;20.05;50.49;96875.81;5015625;28;20604;-94
2022/11/24 06:52:28;;;;;;;3.73;2.57;;;;;;;20.60;50.63;96975.91;5030826;28;20206;-93
2022/11/24 06:54:56;;;;;;;2.30;1.80;;;;;;;20.18;50.78;96903.38;5028815;28;20195;-96
2022/11/24 06:57:22;;;;;;;4.97;2.50;;;;;;;20.63;50.66;96976.81;4976865;28;20183;-91
2022/11/24 06:59:49;;;;;;;5.87;2.80;;;;;;;20.32;49.99;96923.31;5030662;28;20206;-93
2022/11/24 07:02:15;;;;;;;5.87;2.20;;;;;;;20.38;50.02;96945.56;5001876;28;20210;-96
2022/11/24 07:04:42;;;;;;;4.17;2.20;;;;;;;20.30;50.15;96929.19;4995250;28;20391;-94
2022/11/24 07:07:09;;;;;;;6.53;2.70;;;;;;;20.52;50.30;96957.81;4995095;28;20289;-93
2022/11/24 07:09:35;;;;;;;5.90;2.33;;;;;;;20.46;50.72;96947.47;5001399;28;20703;-93
2022/11/24 07:12:03;;;;;;;5.27;2.40;;;;;;;21.03;50.50;97048.53;4972240;28;20214;-92
2022/11/24 07:14:30;;;;;;;4.83;2.50;;;;;;;20.50;50.41;96968.84;4976290;28;20497;-92
2022/11/24 07:16:57;;;;;;;3.20;2.30;;;;;;;20.33;48.91;96945.47;4981060;28;21029;-92
2022/11/24 07:19:24;;;;;;;6.83;2.37;;;;;;;20.60;47.76;96988.69;5000872;28;20264;-92
2022/11/24 07:21:50;;;;;;;4.37;2.37;;;;;;;20.31;48.50;96938.59;4998286;28;20206;-91
2022/11/24 07:24:17;;;;;;;4.83;2.10;;;;;;;20.93;49.28;97040.56;4979912;28;20215;-93
2022/11/24 07:26:44;;;;;;;4.40;2.30;;;;;;;20.85;49.34;97045.50;4988800;28;20226;-92
2022/11/24 07:29:10;;;;;;;3.17;2.10;;;;;;;20.50;49.75;96979.03;5001138;28;20199;-93
2022/11/24 07:31:37;;;;;;;6.60;2.00;;;;;;;21.02;49.68;97079.97;4994291;28;20206;-93
2022/11/24 07:34:04;;;;;;;4.30;2.20;;;;;;;20.63;50.26;97016.84;5013726;28;20202;-93
2022/11/24 07:36:30;;;;;;;5.00;2.00;;;;;;;20.73;50.03;97032.41;4997377;28;20649;-93
2022/11/24 07:38:57;;;;;;;5.57;2.27;;;;;;;20.69;50.04;97033.16;4990139;28;20274;-90
2022/11/24 07:41:23;;;;;;;5.67;2.17;;;;;;;20.60;50.18;97014.22;4973561;28;20222;-92
2022/11/24 07:43:50;;;;;;;3.60;2.17;;;;;;;20.43;50.29;96989.94;4969778;28;20223;-91
2022/11/24 07:46:18;;;;;;;2.93;1.97;;;;;;;20.92;50.51;97072.03;4990664;28;20294;-92
2022/11/24 07:48:45;;;;;;;3.93;1.97;;;;;;;20.88;50.41;97068.56;4987978;28;20217;-93
2022/11/24 07:51:11;;;;;;;3.10;2.03;;;;;;;20.70;50.70;97034.91;4994405;28;20210;-93
2022/11/24 07:53:38;;;;;;;3.57;2.33;;;;;;;20.93;50.57;97073.78;4991097;28;20214;-92
2022/11/24 07:56:05;;;;;;;3.50;1.97;;;;;;;20.52;50.76;97006.31;4995026;28;20286;-92
2022/11/24 07:58:33;;;;;;;3.30;1.73;;;;;;;20.34;50.89;96972.69;4981397;28;20230;-93
2022/11/24 08:01:09;;;;;;;2.80;1.90;;;;;;;20.55;50.75;97014.09;4997166;28;20221;-93
2022/11/24 08:03:35;;;;;;;2.60;1.60;;;;;;;20.75;50.84;97051.19;5006534;28;20222;-92
2022/11/24 08:06:02;;;;;;;4.10;1.90;;;;;;;20.63;50.88;97021.94;4974050;28;20297;-93
2022/11/24 08:08:49;;;;;;;4.73;1.80;;;;;;;20.85;50.96;97055.72;5004960;28;20201;-90
2022/11/24 08:11:16;;;;;;;2.97;1.90;;;;;;;20.44;50.87;96986.56;5008145;28;20736;-93
2022/11/24 08:13:43;;;;;;;2.17;1.57;;;;;;;20.80;50.91;97044.50;4987480;28;20858;-92
2022/11/24 08:16:14;;;;;;;2.70;1.80;;;;;;;20.89;51.08;97047.28;5000122;28;20777;-91
2022/11/24 08:18:41;;;;;;;2.40;1.87;;;;;;;20.09;51.08;96920.97;5006457;28;20208;-93
2022/11/24 08:21:12;;;;;;;3.57;1.90;;;;;;;20.66;50.89;97025.41;4973818;28;20229;-93
2022/11/24 08:23:39;;;;;;;2.53;1.70;;;;;;;20.54;51.35;96991.09;4975968;28;20294;-93
2022/11/24 08:26:08;;;;;;;3.27;2.00;;;;;;;20.67;51.19;97022.06;4973710;28;20223;-92
2022/11/24 08:28:34;;;;;;;2.83;1.73;;;;;;;20.82;51.21;97053.06;4993302;28;20923;-92
2022/11/24 08:31:05;;;;;;;2.77;1.77;;;;;;;20.94;51.36;97085.72;5008198;28;20206;-92
2022/11/24 08:33:32;;;;;;;2.63;1.70;;;;;;;20.78;50.79;97050.41;4982310;28;20266;-93
2022/11/24 08:36:06;;;;;;;2.23;1.60;;;;;;;20.89;51.55;97072.81;4993460;28;20231;-93
2022/11/24 08:38:33;;;;;;;2.20;1.47;;;;;;;20.96;51.47;97063.66;4976913;28;20281;-93
2022/11/24 08:41:04;;;;;;;2.37;1.70;;;;;;;20.83;51.42;97047.13;5029698;28;20211;-92
2022/11/24 08:43:30;;;;;;;4.30;1.90;;;;;;;20.46;51.41;96983.19;5026315;28;20232;-93
2022/11/24 08:46:07;;;;;;;2.80;1.50;;;;;;;20.65;51.39;97017.72;5025807;28;20232;-92
2022/11/24 08:48:34;;;;;;;2.97;1.90;;;;;;;21.18;50.76;97114.44;4996762;28;20201;-90
2022/11/24 08:51:09;;;;;;;5.57;2.20;;;;;;;20.94;50.26;97072.94;4981484;28;20213;-90
2022/11/24 08:53:35;;;;;;;4.87;2.03;;;;;;;20.89;50.13;97070.28;4959665;28;20207;-91
2022/11/24 08:56:02;;;;;;;4.13;1.93;;;;;;;20.97;50.01;97073.03;4982430;28;20254;-91
2022/11/24 08:58:29;;;;;;;3.27;1.90;;;;;;;20.98;50.27;97072.19;4978674;28;20206;-92
2022/11/24 09:01:01;;;;;;;4.33;2.00;;;;;;;20.72;50.50;97032.38;4961329;28;20245;-90
2022/11/24 09:03:28;;;;;;;6.00;2.20;;;;;;;20.65;50.47;97025.38;4964320;28;20227;-91
2022/11/24 09:05:55;;;;;;;5.07;2.07;;;;;;;20.98;50.58;97087.53;4988269;28;20229;-91
2022/11/24 09:08:21;;;;;;;2.57;1.67;;;;;;;20.78;50.51;97042.75;5002192;28;20211;-91
2022/11/24 09:10:48;;;;;;;3.83;2.00;;;;;;;20.68;50.49;97021.22;4976588;28;20389;-91
2022/11/24 09:13:14;;;;;;;5.73;2.23;;;;;;;20.92;50.69;97061.81;4966147;28;20224;-91
2022/11/24 09:15:41;;;;;;;4.23;1.90;;;;;;;20.55;50.75;97005.56;4957677;28;20241;-91
2022/11/24 09:18:07;;;;;;;8.03;2.17;;;;;;;20.54;50.58;97001.28;4961509;28;20326;-91
2022/11/24 09:20:34;;;;;;;5.00;1.90;;;;;;;20.79;50.87;97050.44;4981520;28;20206;-90
2022/11/24 09:23:01;;;;;;;9.90;2.37;;;;;;;20.69;51.12;97032.31;4979911;28;20659;-91
2022/11/24 09:25:27;;;;;;;4.97;1.90;;;;;;;20.87;51.40;97064.25;5009639;28;20602;-91
2022/11/24 09:27:55;;;;;;;3.27;1.97;;;;;;;20.94;51.75;97083.16;4981231;28;20234;-92
2022/11/24 09:30:22;;;;;;;4.23;1.80;;;;;;;20.80;51.22;97054.72;4973950;28;20234;-91
2022/11/24 09:32:48;;;;;;;6.60;2.20;;;;;;;20.84;51.27;97065.88;4991466;28;20289;-91
2022/11/24 09:35:15;;;;;;;4.00;1.90;;;;;;;20.95;51.17;97084.91;4991244;28;20235;-91
2022/11/24 09:37:43;;;;;;;3.47;1.90;;;;;;;20.84;51.59;97071.00;4992357;28;20217;-90
2022/11/24 09:40:13;;;;;;;4.77;2.23;;;;;;;20.88;51.39;97073.66;4976318;28;20293;-91
2022/11/24 09:42:47;;;;;;;3.37;1.97;;;;;;;21.11;51.41;97098.09;4964475;28;20203;-91
2022/11/24 09:45:25;;;;;;;2.97;1.90;;;;;;;21.24;51.26;97120.56;4976010;28;20601;-91
2022/11/24 09:48:11;;;;;;;3.37;1.70;;;;;;;21.25;51.38;97124.84;5005584;28;20216;-90
2022/11/24 09:50:38;;;;;;;7.97;2.00;;;;;;;20.91;51.38;97067.75;4996454;28;20294;-91
2022/11/24 09:53:14;;;;;;;4.93;2.27;;;;;;;20.81;51.26;97051.31;4961584;28;20234;-91
2022/11/24 09:55:50;;;;;;;3.80;2.00;;;;;;;20.92;51.31;97072.91;4997276;28;20226;-91
2022/11/24 09:58:43;;;;;;;3.53;1.93;;;;;;;21.26;51.29;97131.69;4965306;28;20221;-91
2022/11/24 10:01:14;;;;;;;3.43;2.03;;;;;;;21.25;51.39;97129.09;4969548;28;20214;-92
2022/11/24 10:03:43;;;;;;;4.50;2.10;;;;;;;20.96;51.45;97084.94;4981834;28;20225;-91
2022/11/24 10:06:37;;;;;;;2.93;1.90;;;;;;;20.77;51.64;97059.75;4964627;28;20240;-91
2022/11/24 10:09:32;;;;;;;4.20;1.83;;;;;;;21.25;51.51;97142.75;4980466;28;20205;-92
2022/11/24 10:12:35;;;;;;;2.70;1.67;;;;;;;21.12;51.53;97121.97;5013552;28;20361;-91
2022/11/24 10:15:04;;;;;;;1.90;1.60;;;;;;;21.25;51.56;97154.63;5000322;28;20198;-92
2022/11/24 10:18:08;;;;;;;3.30;1.90;;;;;;;21.24;51.60;97158.03;4995173;28;20209;-90
2022/11/24 10:20:57;;;;;;;2.90;1.60;;;;;;;21.24;51.56;97158.91;4994231;28;20215;-91
2022/11/24 10:23:30;;;;;;;3.20;1.70;;;;;;;21.25;51.56;97169.97;4994996;28;20256;-91
2022/11/24 10:26:07;;;;;;;5.10;2.00;;;;;;;20.78;51.27;97075.94;5012606;28;20605;-91
2022/11/24 10:28:52;;;;;;;3.00;1.60;;;;;;;21.25;51.82;97162.31;4966261;28;20229;-91
2022/11/24 10:31:29;;;;;;;3.63;2.23;;;;;;;20.22;51.83;96987.69;4982439;28;20313;-91
2022/11/24 10:33:58;;;;;;;2.80;1.87;;;;;;;20.88;51.82;97093.22;4980154;28;20688;-91
2022/11/24 10:36:58;;;;;;;1.63;1.53;;;;;;;20.76;51.37;97070.81;4964144;28;20230;-91
2022/11/24 10:39:35;;;;;;;2.50;1.67;;;;;;;20.91;51.55;97096.72;4982057;28;20508;-91
2022/11/24 10:42:13;;;;;;;4.17;1.50;;;;;;;21.26;51.70;97159.78;4954585;28;20202;-92
2022/11/24 10:44:40;;;;;;;1.67;1.43;;;;;;;20.89;51.72;97098.38;4977537;28;20229;-91
2022/11/24 10:47:18;;;;;;;2.47;1.63;;;;;;;20.92;51.67;97082.25;4957395;28;20226;-92
2022/11/24 10:50:00;;;;;;;5.23;1.67;;;;;;;21.16;51.80;97127.19;4981093;28;20253;-92
2022/11/24 10:52:33;;;;;;;2.73;1.60;;;;;;;20.61;51.99;97050.00;5006936;28;20264;-92
2022/11/24 10:55:01;;;;;;;2.80;1.50;;;;;;;20.54;51.74;97040.44;4972999;28;20582;-91
2022/11/24 10:57:32;;;;;;;3.60;1.80;;;;;;;20.93;51.87;97112.09;4958709;28;20207;-92
2022/11/24 10:59:59;;;;;;;3.73;1.83;;;;;;;20.70;51.93;97057.00;4962402;28;20218;-91
2022/11/24 11:02:28;;;;;;;3.23;2.10;;;;;;;20.90;51.88;97104.34;4996263;28;20208;-91
2022/11/24 11:04:55;;;;;;;4.63;2.57;;;;;;;21.10;51.61;97134.69;4977370;28;20325;-91
2022/11/24 11:07:24;;;;;;;7.00;2.20;;;;;;;20.92;51.67;97107.78;4973026;28;20652;-91
2022/11/24 11:10:10;;;;;;;5.20;2.20;;;;;;;20.80;51.72;97084.50;4961355;28;20235;-90
2022/11/24 11:12:36;;;;;;;5.03;2.43;;;;;;;21.03;51.63;97120.06;4963474;28;20197;-91
2022/11/24 11:15:29;;;;;;;5.47;2.10;;;;;;;20.96;51.65;97109.63;4975177;28;20764;-91
2022/11/24 11:17:57;;;;;;;3.00;2.00;;;;;;;20.91;51.51;97112.03;4967900;28;20221;-90
2022/11/24 11:20:32;;;;;;;5.33;2.33;;;;;;;20.92;52.03;97111.22;4975858;28;20219;-91
2022/11/24 11:23:29;;;;;;;4.80;2.30;;;;;;;21.28;51.72;97165.81;4960232;28;20205;-91
2022/11/24 11:26:24;;;;;;;3.43;2.00;;;;;;;21.27;51.78;97164.09;4972957;28;20226;-91
2022/11/24 11:29:03;;;;;;;5.07;2.20;;;;;;;20.91;51.96;97109.50;4993888;28;20206;-92
2022/11/24 11:31:57;;;;;;;4.90;2.13;;;;;;;21.00;51.90;97117.41;4988498;28;20691;-91
2022/11/24 11:34:43;;;;;;;2.40;1.90;;;;;;;20.73;51.57;97075.84;5015002;28;20581;-92
2022/11/24 11:37:11;;;;;;;3.40;2.00;;;;;;;21.26;51.85;97167.44;5013195;28;20286;-91
2022/11/24 11:39:42;;;;;;;4.20;2.20;;;;;;;21.27;51.86;97174.31;4964165;28;20202;-92
2022/11/24 11:42:17;;;;;;;5.90;2.20;;;;;;;21.27;51.78;97173.44;4978630;28;20309;-91
2022/11/24 11:45:16;;;;;;;3.23;2.10;;;;;;;20.60;52.16;97063.56;5030443;28;20210;-96
2022/11/24 11:47:50;;;;;;;21.10;7.10;;;;;;;21.04;51.52;97129.44;4988407;28;20603;-91
2022/11/24 11:50:23;;;;;;;19.17;6.37;;;;;;;21.03;50.94;97137.94;4972790;28;20213;-91